Time;durP1;ratioP1;P1;durP2;ratioP2;P2;SDS_P1;SDS_P2;PMS_P1;PMS_P2;Temp;Humidity;BMP_temperature;BMP_pressure;BME280_temperature;BME280_humidity;BME280_pressure;Samples;Min_cycle;Max_cycle;Signal;HPM_P1;HPM_P2
2022/04/23 00:00:39;;;;;;;16.12;12.47;;;;;;;9.53;71.18;98942.16;1755358;81;21034;-43
2022/04/23 00:03:07;;;;;;;17.35;11.35;;;;;;;9.51;70.94;98945.79;1755495;81;20978;-43
2022/04/23 00:05:34;;;;;;;14.65;11.60;;;;;;;9.50;71.00;98936.10;1755461;81;21805;-43
2022/04/23 00:08:03;;;;;;;17.12;11.53;;;;;;;9.53;70.92;98938.10;1755453;81;21025;-43
2022/04/23 00:10:30;;;;;;;15.43;11.22;;;;;;;9.52;70.60;98939.23;1755541;81;21126;-43
2022/04/23 00:12:59;;;;;;;13.90;11.45;;;;;;;9.48;70.49;98928.94;1755421;81;20892;-43
2022/04/23 00:15:27;;;;;;;16.35;12.10;;;;;;;9.46;70.62;98920.39;1755690;81;20963;-43
2022/04/23 00:17:54;;;;;;;17.52;10.28;;;;;;;9.42;70.63;98918.20;1755630;81;21528;-43
2022/04/23 00:20:23;;;;;;;14.03;10.88;;;;;;;9.43;70.65;98914.36;1755647;81;21026;-43
2022/04/23 00:22:51;;;;;;;16.27;10.63;;;;;;;9.48;70.21;98911.34;1755841;81;23181;-43
2022/04/23 00:25:19;;;;;;;14.87;11.20;;;;;;;9.44;70.28;98913.22;1755635;81;20981;-43
2022/04/23 00:27:47;;;;;;;13.98;10.95;;;;;;;9.40;70.23;98921.25;1752942;81;20982;-43
2022/04/23 00:30:14;;;;;;;14.30;10.95;;;;;;;9.37;70.26;98910.39;1750606;82;21037;-43
2022/04/23 00:32:42;;;;;;;13.40;10.20;;;;;;;9.34;70.34;98907.06;1750471;82;21022;-43
2022/04/23 00:35:17;;;;;;;15.30;10.20;;;;;;;9.33;70.33;98893.32;1750413;82;20971;-43
2022/04/23 00:37:45;;;;;;;13.93;10.50;;;;;;;9.37;69.91;98892.80;1750641;82;20927;-43
2022/04/23 00:40:17;;;;;;;12.58;10.20;;;;;;;9.32;69.80;98894.45;1749811;82;20959;-43
2022/04/23 00:42:52;;;;;;;15.50;10.25;;;;;;;9.29;69.95;98895.19;1749882;82;20979;-43
2022/04/23 00:45:20;;;;;;;13.10;9.25;;;;;;;9.25;69.68;98892.97;1749768;82;21070;-43
2022/04/23 00:47:46;;;;;;;12.25;9.00;;;;;;;9.21;69.96;98889.44;1749916;82;21906;-43
2022/04/23 00:50:13;;;;;;;14.30;9.43;;;;;;;9.23;69.86;98895.28;1749800;82;20927;-43
2022/04/23 00:52:40;;;;;;;12.28;9.35;;;;;;;9.23;69.85;98901.47;1749823;82;20998;-43
2022/04/23 00:55:08;;;;;;;12.05;9.25;;;;;;;9.19;70.10;98899.85;1749828;82;21070;-43
2022/04/23 00:57:37;;;;;;;13.90;9.20;;;;;;;9.15;70.13;98897.06;1749798;82;21106;-43
2022/04/23 01:00:08;;;;;;;14.03;8.78;;;;;;;9.11;70.17;98888.90;1749913;82;21248;-43
2022/04/23 01:02:37;;;;;;;10.45;7.50;;;;;;;9.10;70.07;98884.62;1749661;82;21018;-43
2022/04/23 01:05:09;;;;;;;13.25;8.98;;;;;;;9.12;70.04;98883.70;1749736;82;20940;-43
2022/04/23 01:07:38;;;;;;;10.10;8.23;;;;;;;9.19;70.09;98875.51;1749803;82;21030;-43
2022/04/23 01:10:08;;;;;;;14.03;8.98;;;;;;;9.06;70.12;98864.08;1750199;82;21006;-43
2022/04/23 01:12:36;;;;;;;12.75;8.93;;;;;;;9.06;70.12;98864.08;1750031;82;21342;-43
2022/04/23 01:15:11;;;;;;;9.10;8.00;;;;;;;9.02;70.33;98866.73;1750032;82;21201;-43
2022/04/23 01:17:38;;;;;;;10.82;7.75;;;;;;;8.99;70.46;98869.38;1749867;82;21039;-43
2022/04/23 01:20:10;;;;;;;9.78;7.40;;;;;;;8.98;70.42;98869.95;1749981;82;20927;-43
2022/04/23 01:22:37;;;;;;;10.65;8.33;;;;;;;8.97;70.40;98869.73;1749778;82;21042;-43
2022/04/23 01:25:06;;;;;;;9.58;7.85;;;;;;;8.92;70.48;98856.52;1750081;82;21190;-43
2022/04/23 01:27:38;;;;;;;10.90;7.72;;;;;;;8.87;70.66;98854.11;1749906;82;21001;-43
2022/04/23 01:30:06;;;;;;;9.95;6.30;;;;;;;8.82;70.94;98854.41;1750126;82;20987;-43
2022/04/23 01:32:33;;;;;;;9.68;6.87;;;;;;;8.82;70.88;98847.65;1750118;82;21047;-43
2022/04/23 01:35:00;;;;;;;10.63;7.28;;;;;;;8.88;70.69;98854.33;1750121;81;21046;-43
2022/04/23 01:37:28;;;;;;;9.38;7.65;;;;;;;8.87;70.84;98851.97;1749905;82;21011;-43
2022/04/23 01:39:55;;;;;;;7.83;6.78;;;;;;;8.84;70.72;98847.30;1750241;82;21548;-43
2022/04/23 01:42:22;;;;;;;8.68;7.58;;;;;;;8.80;70.82;98847.24;1749808;82;21054;-43
2022/04/23 01:44:51;;;;;;;8.28;6.87;;;;;;;8.75;70.97;98846.19;1750017;82;20966;-43
2022/04/23 01:47:19;;;;;;;8.13;6.00;;;;;;;8.72;71.17;98839.56;1750244;82;21517;-43
2022/04/23 01:49:46;;;;;;;8.73;6.95;;;;;;;8.69;71.33;98834.10;1749887;82;23150;-43
2022/04/23 01:52:14;;;;;;;8.70;6.65;;;;;;;8.69;71.50;98836.23;1749973;82;21030;-43
2022/04/23 01:54:43;;;;;;;12.58;7.60;;;;;;;8.67;71.57;98843.13;1749778;82;20991;-43
2022/04/23 01:57:11;;;;;;;11.88;6.80;;;;;;;8.33;71.54;98796.80;1749825;82;21532;-43
2022/04/23 01:59:39;;;;;;;12.98;6.47;;;;;;;8.60;71.60;98837.05;1749862;82;21061;-43
2022/04/23 02:02:06;;;;;;;9.55;5.78;;;;;;;8.61;71.77;98839.18;1749911;82;21266;-43
2022/04/23 02:04:34;;;;;;;9.65;6.30;;;;;;;8.68;71.80;98833.89;1749756;82;21561;-43
2022/04/23 02:07:01;;;;;;;8.73;6.87;;;;;;;8.69;71.82;98832.19;1749655;82;21125;-43
2022/04/23 02:09:29;;;;;;;9.03;6.53;;;;;;;8.67;72.05;98826.91;1749811;82;21377;-43
2022/04/23 02:11:57;;;;;;;9.98;6.92;;;;;;;8.63;72.10;98840.38;1749814;82;21517;-43
2022/04/23 02:14:26;;;;;;;6.15;5.10;;;;;;;8.58;72.41;98836.61;1749717;82;20978;-43
2022/04/23 02:16:54;;;;;;;8.90;5.87;;;;;;;8.58;72.72;98835.83;1749611;82;20963;-43
2022/04/23 02:19:22;;;;;;;11.85;6.03;;;;;;;8.61;72.87;98829.72;1749815;82;21006;-43
2022/04/23 02:21:49;;;;;;;8.80;6.60;;;;;;;8.59;73.07;98823.31;1749611;82;21376;-43
2022/04/23 02:24:17;;;;;;;7.72;6.37;;;;;;;8.56;73.23;98828.66;1749725;82;21129;-43
2022/04/23 02:26:43;;;;;;;7.83;5.37;;;;;;;8.52;73.22;98827.83;1749786;82;21262;-43
2022/04/23 02:29:11;;;;;;;8.25;5.30;;;;;;;8.47;73.37;98824.06;1743917;82;21010;-43
2022/04/23 02:31:39;;;;;;;7.62;5.60;;;;;;;8.49;73.24;98829.88;1741761;82;21533;-43
2022/04/23 02:34:06;;;;;;;9.28;6.58;;;;;;;8.48;73.36;98835.84;1742047;82;21505;-43
2022/04/23 02:36:34;;;;;;;8.10;6.28;;;;;;;8.45;73.65;98833.08;1741728;82;21561;-43
2022/04/23 02:39:02;;;;;;;7.03;5.37;;;;;;;8.39;73.85;98828.53;1741767;82;23174;-43
2022/04/23 02:41:30;;;;;;;7.33;5.30;;;;;;;8.36;74.28;98830.61;1742199;82;21788;-43
2022/04/23 02:43:57;;;;;;;13.18;6.17;;;;;;;8.39;74.44;98827.75;1741794;82;21027;-43
2022/04/23 02:46:24;;;;;;;8.68;5.90;;;;;;;8.41;74.58;98833.02;1741718;82;21042;-43
2022/04/23 02:48:51;;;;;;;7.28;6.55;;;;;;;8.38;74.49;98828.31;1741890;82;21086;-43
2022/04/23 02:51:18;;;;;;;9.10;6.40;;;;;;;8.33;74.74;98826.50;1741753;82;21158;-43
2022/04/23 02:53:45;;;;;;;6.78;4.92;;;;;;;8.29;74.96;98816.92;1741661;82;21042;-43
2022/04/23 02:56:16;;;;;;;8.33;6.10;;;;;;;8.28;74.67;98818.84;1741860;82;20983;-43
2022/04/23 02:58:43;;;;;;;;;;;;;;;8.31;74.68;98805.81;1744791;82;20924;-43
2022/04/23 03:01:10;;;;;;;6.87;6.03;;;;;;;8.28;74.51;98808.61;1742106;82;20174;-43
2022/04/23 03:03:40;;;;;;;9.55;6.37;;;;;;;8.17;74.78;98804.95;1741991;82;21542;-43
2022/04/23 03:06:07;;;;;;;8.10;5.50;;;;;;;8.14;74.72;98805.08;1741836;82;21552;-43
2022/04/23 03:08:37;;;;;;;8.38;5.92;;;;;;;8.16;74.67;98800.67;1741961;82;20979;-43
2022/04/23 03:11:10;;;;;;;6.90;5.37;;;;;;;8.19;74.56;98812.89;1742714;82;21355;-43
2022/04/23 03:13:35;;;;;;;6.45;4.78;;;;;;;8.23;74.47;98806.20;1743050;81;21021;-43
2022/04/23 03:16:04;;;;;;;9.20;6.50;;;;;;;8.21;74.49;98809.27;1743702;81;20879;-43
2022/04/23 03:18:32;;;;;;;6.67;5.55;;;;;;;8.18;74.51;98808.62;1743563;82;20969;-43
2022/04/23 03:21:02;;;;;;;9.63;6.35;;;;;;;8.15;74.71;98810.69;1743636;81;21547;-43
2022/04/23 03:23:30;;;;;;;;;;;;;;;8.20;74.80;98805.57;1746099;81;21005;-43
2022/04/23 03:25:59;;;;;;;9.65;6.08;;;;;;;8.18;74.82;98800.52;1743626;82;20173;-43
2022/04/23 03:28:28;;;;;;;10.03;6.57;;;;;;;8.09;75.17;98794.56;1747173;81;23118;-43
2022/04/23 03:30:56;;;;;;;11.33;6.15;;;;;;;8.06;75.27;98792.58;1756783;81;21052;-43
2022/04/23 03:33:24;;;;;;;9.65;5.47;;;;;;;8.10;75.27;98801.53;1756788;81;20978;-43
2022/04/23 03:35:51;;;;;;;6.83;5.75;;;;;;;8.14;75.20;98798.89;1756704;81;21063;-43
2022/04/23 03:38:17;;;;;;;7.85;6.28;;;;;;;8.14;75.13;98807.77;1756803;81;21045;-43
2022/04/23 03:40:45;;;;;;;9.93;6.37;;;;;;;8.12;75.39;98802.53;1756774;81;21368;-43
2022/04/23 03:43:12;;;;;;;9.33;5.78;;;;;;;8.06;75.50;98807.43;1756576;81;21190;-43
2022/04/23 03:45:41;;;;;;;7.75;5.70;;;;;;;8.05;75.48;98799.68;1756529;81;21016;-43
2022/04/23 03:48:09;;;;;;;8.18;6.00;;;;;;;8.11;75.43;98810.41;1756705;81;21017;-43
2022/04/23 03:50:36;;;;;;;11.57;6.35;;;;;;;8.15;75.30;98795.84;1756569;81;20986;-43
2022/04/23 03:53:04;;;;;;;8.13;6.08;;;;;;;8.14;75.12;98797.54;1756626;81;21516;-43
2022/04/23 03:55:31;;;;;;;6.92;5.95;;;;;;;8.13;75.06;98790.60;1756502;81;21523;-43
2022/04/23 03:57:58;;;;;;;9.25;6.28;;;;;;;8.10;75.16;98788.03;1756639;81;20985;-43
2022/04/23 04:00:26;;;;;;;9.63;6.15;;;;;;;8.13;74.99;98799.45;1756637;81;20969;-43
2022/04/23 04:02:55;;;;;;;8.78;6.12;;;;;;;8.18;74.75;98793.77;1756837;81;21025;-43
2022/04/23 04:05:25;;;;;;;12.05;6.50;;;;;;;8.21;74.69;98790.38;1756585;81;20973;-43
2022/04/23 04:07:52;;;;;;;7.72;6.15;;;;;;;8.18;74.57;98791.06;1756685;81;20969;-43
2022/04/23 04:10:22;;;;;;;7.62;5.80;;;;;;;8.18;74.58;98793.02;1756582;81;21034;-43
2022/04/23 04:12:50;;;;;;;8.00;5.22;;;;;;;8.20;74.53;98794.20;1756850;81;20984;-43
2022/04/23 04:15:19;;;;;;;8.38;5.85;;;;;;;8.25;74.17;98787.16;1752911;81;21483;-43
2022/04/23 04:17:55;;;;;;;10.38;6.65;;;;;;;8.31;74.06;98780.94;1752028;81;21322;-43
2022/04/23 04:20:19;;;;;;;9.48;6.65;;;;;;;8.31;74.00;98791.73;1755409;81;21012;-43
2022/04/23 04:22:46;;;;;;;9.20;6.37;;;;;;;8.28;73.73;98782.39;1756986;81;21080;-43
2022/04/23 04:25:17;;;;;;;9.28;6.00;;;;;;;8.29;73.69;98785.34;1757102;81;21499;-43
2022/04/23 04:27:45;;;;;;;9.48;5.87;;;;;;;8.33;73.68;98781.94;1756969;81;21539;-43
2022/04/23 04:30:13;;;;;;;8.30;6.17;;;;;;;8.37;73.47;98792.23;1745488;81;21126;-43
2022/04/23 04:32:41;;;;;;;7.62;6.03;;;;;;;8.35;73.06;98792.58;1743537;81;21053;-43
2022/04/23 04:35:10;;;;;;;8.63;6.28;;;;;;;8.36;73.05;98783.91;1743591;81;20974;-43
2022/04/23 04:37:38;;;;;;;7.58;5.03;;;;;;;8.36;72.90;98782.56;1743448;81;20993;-43
2022/04/23 04:40:07;;;;;;;7.28;5.78;;;;;;;8.40;73.03;98790.16;1743994;81;20985;-43
2022/04/23 04:42:34;;;;;;;8.23;6.00;;;;;;;8.48;72.58;98785.08;1743703;82;21133;-43
2022/04/23 04:45:02;;;;;;;11.57;6.65;;;;;;;8.49;72.57;98790.13;1743643;82;20918;-43
2022/04/23 04:47:29;;;;;;;9.18;6.45;;;;;;;8.51;72.60;98791.14;1743572;82;20998;-43
2022/04/23 04:49:56;;;;;;;7.03;5.35;;;;;;;8.52;72.62;98788.66;1743608;82;21013;-43
2022/04/23 04:52:23;;;;;;;10.13;6.22;;;;;;;8.56;72.53;98797.03;1743510;81;21065;-43
2022/04/23 04:54:51;;;;;;;9.05;6.33;;;;;;;8.64;72.29;98793.87;1743810;81;20934;-43
2022/04/23 04:57:17;;;;;;;8.63;6.58;;;;;;;8.65;71.95;98784.62;1743764;82;21013;-43
2022/04/23 04:59:46;;;;;;;9.85;6.70;;;;;;;8.67;72.14;98786.38;1743805;81;20923;-43
2022/04/23 05:02:13;;;;;;;8.95;5.87;;;;;;;8.68;72.21;98774.44;1743823;82;21033;-43
2022/04/23 05:04:41;;;;;;;9.10;5.90;;;;;;;8.72;72.04;98780.11;1743791;81;20970;-43
2022/04/23 05:07:08;;;;;;;8.88;6.20;;;;;;;8.80;72.10;98785.08;1743541;81;23229;-43
2022/04/23 05:09:35;;;;;;;11.73;6.47;;;;;;;8.85;71.88;98780.72;1743354;82;20938;-43
2022/04/23 05:12:04;;;;;;;8.98;6.25;;;;;;;8.88;71.48;98767.83;1743651;82;20962;-43
2022/04/23 05:14:32;;;;;;;9.48;6.17;;;;;;;8.93;71.59;98776.98;1743573;81;21579;-43
2022/04/23 05:16:59;;;;;;;7.55;5.20;;;;;;;8.98;71.40;98779.38;1743703;82;21554;-43
2022/04/23 05:19:26;;;;;;;8.68;6.33;;;;;;;9.05;70.86;98764.60;1743454;82;21251;-43
2022/04/23 05:21:54;;;;;;;7.58;6.35;;;;;;;9.09;70.58;98774.92;1743427;81;20973;-43
2022/04/23 05:24:24;;;;;;;10.15;6.12;;;;;;;9.07;70.37;98771.01;1743423;81;21034;-43
2022/04/23 05:26:51;;;;;;;;;;;;;;;9.05;70.61;98776.02;1746283;81;20982;-43
2022/04/23 05:29:20;;;;;;;10.00;6.08;;;;;;;9.03;70.64;98772.31;1747838;81;20137;-43
2022/04/23 05:31:48;;;;;;;10.20;5.70;;;;;;;8.98;71.13;98760.45;1756848;81;21322;-43
2022/04/23 05:34:15;;;;;;;7.58;6.20;;;;;;;9.09;70.81;98768.16;1756758;81;21023;-43
2022/04/23 05:36:43;;;;;;;9.90;6.00;;;;;;;9.14;70.40;98750.28;1756785;81;21082;-43
2022/04/23 05:39:09;;;;;;;9.60;6.55;;;;;;;9.16;70.42;98744.48;1756905;81;20998;-43
2022/04/23 05:41:37;;;;;;;9.83;6.95;;;;;;;9.19;70.68;98741.64;1756901;81;21006;-43
2022/04/23 05:44:05;;;;;;;8.58;5.42;;;;;;;9.24;70.77;98741.33;1757010;81;21250;-43
2022/04/23 05:46:34;;;;;;;7.97;5.90;;;;;;;9.31;70.54;98740.84;1756884;81;21007;-43
2022/04/23 05:49:01;;;;;;;10.13;6.03;;;;;;;9.39;70.03;98741.13;1756802;81;21016;-43
2022/04/23 05:51:29;;;;;;;7.90;6.05;;;;;;;9.43;69.74;98724.97;1756667;81;20937;-43
2022/04/23 05:53:57;;;;;;;9.00;7.03;;;;;;;9.47;69.32;98728.50;1756885;81;21578;-43
2022/04/23 05:56:24;;;;;;;11.83;6.85;;;;;;;9.51;69.22;98726.61;1756831;81;22167;-43
2022/04/23 05:58:51;;;;;;;7.58;5.85;;;;;;;9.58;69.09;98728.07;1756658;81;21553;-43
2022/04/23 06:01:18;;;;;;;9.58;6.22;;;;;;;9.63;68.90;98730.45;1756747;81;20965;-43
2022/04/23 06:03:45;;;;;;;9.70;6.55;;;;;;;9.69;69.28;98733.59;1756925;81;21045;-43
2022/04/23 06:06:14;;;;;;;10.70;7.35;;;;;;;9.71;69.08;98721.27;1757140;81;20976;-43
2022/04/23 06:08:42;;;;;;;11.85;6.72;;;;;;;9.73;69.21;98723.01;1756866;81;21147;-43
2022/04/23 06:11:09;;;;;;;7.95;5.72;;;;;;;9.74;69.02;98728.63;1757002;81;20976;-43
2022/04/23 06:13:37;;;;;;;7.62;6.35;;;;;;;9.78;68.74;98721.93;1756842;81;21467;-43
2022/04/23 06:16:04;;;;;;;8.75;6.20;;;;;;;9.86;68.80;98720.28;1756815;81;21656;-43
2022/04/23 06:18:31;;;;;;;7.15;6.05;;;;;;;9.93;68.85;98723.05;1756875;81;21017;-43
2022/04/23 06:20:58;;;;;;;7.45;6.62;;;;;;;9.98;68.68;98724.08;1756807;81;21253;-43
2022/04/23 06:23:27;;;;;;;8.68;6.60;;;;;;;10.03;68.55;98718.91;1756576;81;20933;-43
2022/04/23 06:25:55;;;;;;;8.75;5.87;;;;;;;10.09;68.63;98707.95;1756624;81;21024;-43
2022/04/23 06:28:22;;;;;;;7.50;6.67;;;;;;;10.14;68.29;98715.73;1756537;81;21098;-43
2022/04/23 06:30:49;;;;;;;10.32;6.75;;;;;;;10.24;67.88;98714.31;1739155;81;21093;-43
2022/04/23 06:33:18;;;;;;;7.87;6.30;;;;;;;10.32;67.72;98714.58;1734966;82;20907;-43
2022/04/23 06:35:45;;;;;;;10.18;6.62;;;;;;;10.36;67.33;98713.45;1735014;82;21587;-43
2022/04/23 06:38:12;;;;;;;8.53;6.75;;;;;;;10.39;67.23;98710.02;1734821;82;21041;-43
2022/04/23 06:40:41;;;;;;;8.88;6.20;;;;;;;10.45;67.43;98711.23;1734885;82;20981;-43
2022/04/23 06:43:08;;;;;;;10.15;6.33;;;;;;;10.55;67.02;98707.06;1735081;82;21081;-43
2022/04/23 06:45:35;;;;;;;8.00;6.00;;;;;;;10.67;66.13;98697.84;1734888;82;21547;-43
2022/04/23 06:48:05;;;;;;;7.87;5.60;;;;;;;10.76;66.26;98704.50;1734888;82;20954;-43
2022/04/23 06:50:33;;;;;;;8.20;6.17;;;;;;;10.84;65.59;98704.75;1735019;82;21316;-43
2022/04/23 06:53:00;;;;;;;9.30;6.65;;;;;;;10.95;65.29;98700.76;1735105;82;21021;-43
2022/04/23 06:55:28;;;;;;;7.72;6.40;;;;;;;11.05;64.19;98691.91;1734948;82;20931;-43
2022/04/23 06:57:55;;;;;;;9.10;6.42;;;;;;;11.13;64.32;98717.95;1735061;82;21203;-43
2022/04/23 07:00:22;;;;;;;9.83;5.20;;;;;;;11.20;63.27;98688.70;1734976;82;21520;-43
2022/04/23 07:02:55;;;;;;;9.80;5.50;;;;;;;11.28;63.61;98690.29;1735212;82;21033;-43
2022/04/23 07:05:18;;;;;;;10.85;6.40;;;;;;;11.42;62.80;98685.53;1723809;82;20993;-43
2022/04/23 07:07:59;;;;;;;11.63;5.83;;;;;;;11.55;62.80;98681.31;1705787;84;21130;-43
2022/04/23 07:10:30;;;;;;;8.25;5.62;;;;;;;11.70;63.39;98693.79;1705665;84;20973;-43
2022/04/23 07:12:57;;;;;;;11.13;6.60;;;;;;;11.88;61.94;98685.14;1705725;84;21034;-43
2022/04/23 07:15:25;;;;;;;8.13;5.58;;;;;;;12.04;60.96;98683.44;1705607;84;20977;-43
2022/04/23 07:17:53;;;;;;;8.68;6.20;;;;;;;12.17;59.30;98684.62;1705641;84;21088;-43
2022/04/23 07:20:20;;;;;;;8.25;6.10;;;;;;;12.31;59.61;98683.86;1705566;84;21570;-43
2022/04/23 07:25:36;;;;;;;9.28;5.50;;;;;;;12.47;59.52;98678.25;1705296;84;21038;-43
2022/04/23 07:28:05;;;;;;;6.97;5.35;;;;;;;12.56;60.06;98669.12;1705713;84;21088;-43
2022/04/23 07:30:33;;;;;;;11.15;5.50;;;;;;;12.66;58.03;98671.64;1712636;83;21052;-43
2022/04/23 07:33:00;;;;;;;7.60;4.80;;;;;;;12.72;57.29;98670.66;1719215;83;21001;-43
2022/04/23 07:38:17;;;;;;;5.78;5.00;;;;;;;12.79;56.95;98677.44;1719031;83;20957;-43
2022/04/23 07:40:47;;;;;;;7.67;5.10;;;;;;;12.84;57.11;98670.25;1719179;83;21645;-43
2022/04/23 07:43:15;;;;;;;5.97;4.65;;;;;;;12.90;55.87;98661.31;1718576;83;21041;-43
2022/04/23 07:45:45;;;;;;;6.72;4.67;;;;;;;12.98;54.45;98656.62;1719020;83;21096;-43
2022/04/23 07:48:14;;;;;;;5.67;4.42;;;;;;;13.05;54.98;98660.70;1719015;83;21009;-43
2022/04/23 07:50:42;;;;;;;5.65;4.28;;;;;;;13.14;53.14;98657.01;1719097;83;20988;-43
2022/04/23 07:53:09;;;;;;;8.58;4.50;;;;;;;13.27;53.61;98651.32;1719208;83;21009;-43
2022/04/23 07:55:38;;;;;;;7.67;4.42;;;;;;;13.39;52.93;98646.82;1719134;83;21559;-43
2022/04/23 07:58:07;;;;;;;7.12;4.78;;;;;;;13.53;54.07;98637.03;1719227;83;21029;-43
2022/04/23 08:00:35;;;;;;;7.22;4.50;;;;;;;13.74;54.05;98630.13;1719531;83;21025;-43
2022/04/23 08:03:05;;;;;;;8.55;5.08;;;;;;;14.00;53.62;98629.56;1719279;83;20965;-43
2022/04/23 08:05:33;;;;;;;6.50;4.03;;;;;;;14.18;52.06;98640.36;1719520;83;21013;-43
2022/04/23 08:08:00;;;;;;;6.72;4.40;;;;;;;14.32;51.56;98630.70;1719295;83;21011;-43
2022/04/23 08:10:28;;;;;;;7.72;4.40;;;;;;;14.39;49.94;98632.61;1719474;83;20934;-44
2022/04/23 08:12:56;;;;;;;8.63;4.33;;;;;;;14.49;51.01;98610.71;1719352;83;20945;-44
2022/04/23 08:15:26;;;;;;;4.00;3.60;;;;;;;14.59;50.73;98622.70;1719305;83;21045;-43
2022/04/23 08:17:56;;;;;;;53.07;15.50;;;;;;;14.62;49.47;98627.38;1719751;83;21076;-43
2022/04/23 08:20:24;;;;;;;5.60;4.28;;;;;;;14.61;49.54;98625.81;1719475;83;21005;-43
2022/04/23 08:22:51;;;;;;;6.37;4.53;;;;;;;14.60;49.25;98608.67;1719644;83;21531;-44
2022/04/23 08:25:20;;;;;;;6.53;3.85;;;;;;;14.59;48.54;98606.34;1719441;83;21531;-44
2022/04/23 08:27:55;;;;;;;6.15;4.25;;;;;;;14.58;47.90;98614.33;1719473;83;20965;-43
2022/04/23 08:30:34;;;;;;;9.58;4.33;;;;;;;14.57;48.70;98610.83;1719358;83;20976;-43
2022/04/23 08:33:04;;;;;;;9.55;4.45;;;;;;;14.58;49.00;98615.11;1719521;83;20977;-43
2022/04/23 08:35:34;;;;;;;6.53;3.62;;;;;;;14.63;48.61;98619.35;1719537;83;21204;-43
2022/04/23 08:38:01;;;;;;;7.65;4.08;;;;;;;14.65;48.76;98613.69;1719740;83;21720;-43
2022/04/23 08:40:29;;;;;;;5.37;4.55;;;;;;;14.71;48.18;98624.36;1719133;83;20985;-43
2022/04/23 08:42:57;;;;;;;5.30;3.80;;;;;;;14.76;48.04;98598.59;1719275;83;21028;-44
2022/04/23 08:45:24;;;;;;;5.50;4.03;;;;;;;14.81;48.64;98609.06;1714528;83;21005;-44
2022/04/23 08:47:52;;;;;;;5.45;3.90;;;;;;;14.92;47.49;98610.29;1719232;83;20977;-43
2022/04/23 08:50:22;;;;;;;8.43;4.20;;;;;;;15.01;47.87;98600.44;1719162;83;23102;-44
2022/04/23 08:52:55;;;;;;;7.10;4.12;;;;;;;15.09;48.56;98596.47;1719236;83;20898;-44
2022/04/23 08:55:22;;;;;;;8.10;4.15;;;;;;;15.21;47.14;98606.84;1719243;83;21072;-43
2022/04/23 08:57:50;;;;;;;4.95;4.37;;;;;;;15.29;46.72;98591.75;1719206;83;21049;-44
2022/04/23 09:00:18;;;;;;;4.45;4.05;;;;;;;15.33;47.67;98597.34;1719190;83;21012;-44
2022/04/23 09:02:46;;;;;;;5.53;4.17;;;;;;;15.45;47.28;98591.33;1719030;83;23108;-43
2022/04/23 09:05:14;;;;;;;7.67;4.00;;;;;;;15.53;46.35;98588.73;1719034;83;21005;-43
2022/04/23 09:07:54;;;;;;;6.67;3.95;;;;;;;15.58;45.91;98599.79;1719299;83;21510;-44
2022/04/23 09:10:44;;;;;;;5.95;4.12;;;;;;;15.64;47.46;98581.73;1719495;83;21016;-44
2022/04/23 09:13:11;;;;;;;7.97;4.43;;;;;;;15.80;48.27;98586.00;1719529;83;20993;-44
2022/04/23 09:24:10;;;;;;;5.35;4.15;;;;;;;16.38;47.79;98593.48;1719683;82;20984;-43
2022/04/23 09:26:41;;;;;;;4.65;3.85;;;;;;;16.54;46.23;98564.88;1719417;83;21008;-44
2022/04/23 09:29:17;;;;;;;;;;;;;;;16.59;46.51;98563.06;1721828;83;21255;-44
2022/04/23 09:31:46;;;;;;;8.53;4.70;;;;;;;16.56;45.67;98550.17;1708835;83;20169;-44
2022/04/23 09:34:17;;;;;;;5.58;4.08;;;;;;;16.42;46.69;98558.63;1705657;84;20993;-44
2022/04/23 09:36:50;;;;;;;5.47;3.60;;;;;;;16.36;44.30;98550.12;1705470;83;20970;-44
2022/04/23 09:39:38;;;;;;;7.45;3.90;;;;;;;16.31;44.97;98553.37;1705787;84;21010;-44
2022/04/23 09:42:17;;;;;;;5.35;3.98;;;;;;;16.32;44.06;98566.42;1702860;82;21044;-44
2022/04/23 09:44:46;;;;;;;7.55;4.15;;;;;;;16.46;45.30;98542.33;1722400;82;21030;-44
2022/04/23 09:47:30;;;;;;;4.50;3.62;;;;;;;16.75;45.86;98539.88;1719433;82;21029;-44
2022/04/23 09:49:58;;;;;;;4.15;3.35;;;;;;;17.05;43.72;98551.22;1705589;84;21525;-44
2022/04/23 09:52:31;;;;;;;7.08;3.60;;;;;;;17.31;43.52;98541.30;1706015;84;21552;-44
2022/04/23 09:55:02;;;;;;;6.22;3.20;;;;;;;17.48;41.26;98537.39;1705524;84;20997;-44
2022/04/23 09:57:30;;;;;;;4.25;3.85;;;;;;;17.66;41.63;98540.55;1718756;82;20958;-41
2022/04/23 09:59:58;;;;;;;6.65;3.67;;;;;;;17.75;41.60;98542.70;1713591;82;21499;-41
2022/04/23 10:02:26;;;;;;;7.55;3.98;;;;;;;17.86;42.56;98541.09;1707211;82;20993;-44
2022/04/23 10:04:55;;;;;;;5.72;3.37;;;;;;;18.02;42.73;98541.08;1707353;82;21025;-45
2022/04/23 10:07:24;;;;;;;7.87;3.90;;;;;;;18.21;42.76;98533.34;1705233;83;21119;-43
2022/04/23 10:09:50;;;;;;;5.00;3.60;;;;;;;18.42;41.49;98543.02;1704947;83;21097;-43
2022/04/23 10:12:19;;;;;;;4.33;3.62;;;;;;;18.54;40.76;98557.45;1704955;84;20918;-43
2022/04/23 10:14:58;;;;;;;5.08;3.30;;;;;;;18.60;39.15;98522.16;1704928;84;21496;-43
2022/04/23 10:17:25;;;;;;;7.62;3.77;;;;;;;18.71;40.29;98527.37;1705067;84;21535;-43
2022/04/23 10:19:53;;;;;;;4.35;3.17;;;;;;;18.86;40.10;98535.98;1704993;84;20977;-43
2022/04/23 10:22:52;;;;;;;6.25;3.37;;;;;;;18.95;39.29;98524.53;1705455;84;21017;-43
2022/04/23 10:25:24;;;;;;;4.35;2.80;;;;;;;19.05;39.70;98519.95;1705470;84;20989;-43
2022/04/23 10:27:52;;;;;;;5.58;2.85;;;;;;;19.18;38.65;98513.09;1705823;83;20910;-43
2022/04/23 10:30:19;;;;;;;3.25;2.80;;;;;;;19.29;38.41;98522.57;1705871;83;21503;-44
2022/04/23 10:32:46;;;;;;;4.75;3.12;;;;;;;19.31;38.07;98518.02;1719120;83;21211;-43
2022/04/23 10:35:24;;;;;;;5.42;3.00;;;;;;;19.19;36.42;98514.64;1718993;83;20945;-43
2022/04/23 10:37:53;;;;;;;3.87;2.90;;;;;;;18.95;37.36;98512.77;1719261;83;20972;-43
2022/04/23 10:40:22;;;;;;;7.17;2.98;;;;;;;18.85;38.87;98508.35;1719603;83;21005;-43
2022/04/23 10:43:08;;;;;;;4.87;3.10;;;;;;;18.83;39.13;98509.41;1719374;83;21048;-43
2022/04/23 10:45:36;;;;;;;4.47;2.85;;;;;;;18.81;38.63;98502.19;1719516;83;21049;-43
2022/04/23 10:48:25;;;;;;;4.33;3.10;;;;;;;18.75;38.68;98506.67;1719242;83;21506;-43
2022/04/23 10:51:20;;;;;;;3.67;3.10;;;;;;;18.71;38.25;98514.23;1719623;83;21150;-43
2022/04/23 10:53:50;;;;;;;4.47;2.70;;;;;;;18.49;38.15;98513.40;1718900;83;21096;-43
2022/04/23 10:56:20;;;;;;;7.40;3.10;;;;;;;18.27;38.33;98515.17;1719280;83;21017;-43
2022/04/23 10:58:50;;;;;;;4.15;2.67;;;;;;;18.07;38.67;98500.19;1719211;83;22116;-43
2022/04/23 11:01:24;;;;;;;4.45;2.92;;;;;;;17.93;38.85;98504.66;1719413;83;20941;-43
2022/04/23 11:04:00;;;;;;;4.92;2.40;;;;;;;17.89;39.10;98503.20;1719122;83;21016;-43
2022/04/23 11:12:32;;;;;;;5.37;2.70;;;;;;;18.86;37.49;98490.67;1719174;83;21216;-43
2022/04/23 11:15:01;;;;;;;2.33;2.10;;;;;;;19.36;36.82;98486.64;1719085;83;21043;-43
2022/04/23 11:17:44;;;;;;;4.22;2.50;;;;;;;19.84;35.34;98482.80;1719350;83;21630;-44
2022/04/23 11:20:11;;;;;;;3.40;2.50;;;;;;;20.18;34.54;98486.79;1719253;83;21005;-43
2022/04/23 11:22:38;;;;;;;4.80;2.60;;;;;;;20.36;35.29;98482.24;1719144;83;21553;-44
2022/04/23 11:25:08;;;;;;;2.85;2.30;;;;;;;20.59;33.96;98480.27;1719256;83;20945;-44
2022/04/23 11:27:38;;;;;;;3.20;2.37;;;;;;;20.75;34.99;98486.97;1719844;83;21005;-44
2022/04/23 11:30:07;;;;;;;3.65;2.62;;;;;;;20.83;33.03;98502.02;1719528;83;21008;-44
2022/04/23 11:32:36;;;;;;;3.70;2.45;;;;;;;20.85;33.24;98491.33;1708229;82;20946;-43
2022/04/23 11:35:06;;;;;;;2.60;2.40;;;;;;;20.70;33.66;98483.42;1706097;83;20989;-43
2022/04/23 11:37:38;;;;;;;2.92;2.20;;;;;;;20.50;33.20;98467.81;1706262;84;21102;-44
2022/04/23 11:40:14;;;;;;;3.77;2.40;;;;;;;20.34;34.22;98466.77;1705613;83;20946;-43
2022/04/23 11:42:43;;;;;;;4.78;2.10;;;;;;;20.19;33.57;98467.66;1705564;84;20965;-44
2022/04/23 11:46:27;;;;;;;3.92;2.22;;;;;;;20.11;33.48;98463.02;1830399;78;22682;-42
2022/04/23 11:48:55;;;;;;;4.15;2.27;;;;;;;19.96;33.94;98457.83;1803488;79;20998;-43
2022/04/23 11:51:22;;;;;;;6.12;2.50;;;;;;;19.96;34.60;98451.72;1803265;79;21212;-43
2022/04/23 11:53:58;;;;;;;6.33;2.67;;;;;;;20.10;35.13;98443.59;1803171;79;21006;-43
2022/04/23 11:56:33;;;;;;;3.20;2.50;;;;;;;20.17;34.64;98447.49;1803208;79;21557;-43
2022/04/23 11:59:07;;;;;;;4.45;2.70;;;;;;;20.13;35.18;98437.82;1803260;79;21557;-43
2022/04/23 12:01:34;;;;;;;4.20;2.40;;;;;;;20.01;35.19;98439.39;1803608;79;20920;-43
2022/04/23 12:04:01;;;;;;;3.42;2.50;;;;;;;19.95;35.70;98439.78;1803249;79;21237;-43
2022/04/23 12:06:43;;;;;;;4.12;2.40;;;;;;;19.91;35.33;98440.52;1803118;79;20943;-43